Time;durP1;ratioP1;P1;durP2;ratioP2;P2;SDS_P1;SDS_P2;PMS_P1;PMS_P2;Temp;Humidity;BMP_temperature;BMP_pressure;BME280_temperature;BME280_humidity;BME280_pressure;Samples;Min_cycle;Max_cycle;Signal;HPM_P1;HPM_P2
2022/09/24 00:01:30;;;;;;;5.43;2.70;;;8.80;99.90;;;;;;5041976;28;20034;-79
2022/09/24 00:04:01;;;;;;;6.50;3.47;;;8.90;99.90;;;;;;5041692;28;20048;-79
2022/09/24 00:06:28;;;;;;;;;;;8.80;99.90;;;;;;5040467;28;20030;-79
2022/09/24 00:08:55;;;;;;;5.65;2.95;;;8.80;99.90;;;;;;5036962;28;20372;-79
2022/09/24 00:11:23;;;;;;;4.95;2.90;;;8.80;99.90;;;;;;5040103;28;20224;-79
2022/09/24 00:13:50;;;;;;;7.28;3.92;;;8.80;99.90;;;;;;5021137;28;20032;-79
2022/09/24 00:16:17;;;;;;;9.07;4.38;;;8.70;99.90;;;;;;5042181;28;20029;-79
2022/09/24 00:18:43;;;;;;;8.43;4.03;;;8.60;99.90;;;;;;5051464;28;20017;-79
2022/09/24 00:21:19;;;;;;;7.28;3.72;;;8.50;99.90;;;;;;5043940;28;20026;-79
2022/09/24 00:23:52;;;;;;;8.30;3.50;;;8.40;99.90;;;;;;5023083;28;20032;-79
2022/09/24 00:29:03;;;;;;;6.85;3.58;;;8.40;99.90;;;;;;5042115;28;20047;-79
2022/09/24 00:31:29;;;;;;;7.13;3.50;;;8.40;99.90;;;;;;5041460;28;20505;-79
2022/09/24 00:33:56;;;;;;;4.93;3.40;;;8.50;99.90;;;;;;5020845;28;20116;-79
2022/09/24 00:36:22;;;;;;;4.00;2.60;;;8.50;99.90;;;;;;5045664;28;20049;-79
2022/09/24 00:38:50;;;;;;;4.45;2.83;;;8.50;99.90;;;;;;5038660;28;20452;-79
2022/09/24 00:41:19;;;;;;;6.85;2.75;;;8.40;99.90;;;;;;5023211;28;20021;-79
2022/09/24 00:43:47;;;;;;;4.63;2.80;;;8.50;99.90;;;;;;5040543;28;20432;-79
2022/09/24 00:46:38;;;;;;;4.13;2.63;;;8.50;99.90;;;;;;5023824;28;20105;-79
2022/09/24 00:49:11;;;;;;;4.63;3.03;;;8.60;99.90;;;;;;5022725;28;20025;-79
2022/09/24 00:51:38;;;;;;;3.95;2.65;;;8.60;99.90;;;;;;5044013;28;20081;-79
2022/09/24 00:54:08;;;;;;;7.32;3.30;;;8.70;99.90;;;;;;5034035;28;20132;-79
2022/09/24 00:56:36;;;;;;;6.80;3.45;;;8.70;99.90;;;;;;5042015;28;20025;-79
2022/09/24 00:59:05;;;;;;;5.97;3.08;;;8.70;99.90;;;;;;5043247;28;20014;-79
2022/09/24 01:01:31;;;;;;;4.30;2.83;;;8.70;99.90;;;;;;5045735;28;20485;-79
2022/09/24 01:03:59;;;;;;;4.63;2.80;;;8.70;99.90;;;;;;5039696;28;20017;-79
2022/09/24 01:06:25;;;;;;;5.35;2.80;;;8.70;99.90;;;;;;5027717;28;20104;-79
2022/09/24 01:08:52;;;;;;;7.07;3.10;;;8.70;99.90;;;;;;5019700;28;20049;-79
2022/09/24 01:11:36;;;;;;;5.32;3.10;;;8.60;99.90;;;;;;5020219;28;20039;-79
2022/09/24 01:14:32;;;;;;;5.57;3.72;;;8.50;99.90;;;;;;5039905;28;20051;-79
2022/09/24 01:17:07;;;;;;;7.68;3.38;;;8.40;99.90;;;;;;5040400;28;20559;-79
2022/09/24 01:19:52;;;;;;;5.43;3.20;;;8.30;99.90;;;;;;5037427;28;20029;-79
2022/09/24 01:22:48;;;;;;;4.43;2.60;;;8.30;99.90;;;;;;5043509;28;20017;-79
2022/09/24 01:25:14;;;;;;;7.07;2.90;;;8.30;99.90;;;;;;5036579;28;20465;-79
2022/09/24 01:27:58;;;;;;;3.90;2.70;;;8.30;99.90;;;;;;5041837;28;20036;-79
2022/09/24 01:30:24;;;;;;;3.42;2.45;;;8.40;99.90;;;;;;5022766;28;20132;-79
2022/09/24 01:33:02;;;;;;;3.80;2.58;;;8.50;99.90;;;;;;5020225;28;20113;-79
2022/09/24 01:35:36;;;;;;;3.70;2.47;;;8.50;99.90;;;;;;5024219;28;20021;-79
2022/09/24 01:38:15;;;;;;;3.63;2.42;;;8.60;99.90;;;;;;5039381;28;20021;-79
2022/09/24 01:40:44;;;;;;;5.35;2.72;;;8.60;99.90;;;;;;5042811;28;20021;-79
2022/09/24 01:43:12;;;;;;;5.63;3.00;;;8.60;99.90;;;;;;5038486;28;20029;-79
2022/09/24 01:45:39;;;;;;;6.15;3.05;;;8.70;99.90;;;;;;5041839;28;20163;-79
2022/09/24 01:48:06;;;;;;;4.53;2.60;;;8.70;99.90;;;;;;5037737;28;20103;-79
2022/09/24 01:50:43;;;;;;;4.47;3.03;;;8.70;99.90;;;;;;5040309;28;20029;-79
2022/09/24 01:53:23;;;;;;;6.35;2.92;;;8.70;99.90;;;;;;5041083;28;20116;-79
2022/09/24 01:55:56;;;;;;;3.80;2.75;;;8.70;99.90;;;;;;5038268;28;20053;-79
2022/09/24 01:58:43;;;;;;;4.20;2.92;;;8.70;99.90;;;;;;5035002;28;20107;-79
2022/09/24 02:01:14;;;;;;;6.75;2.88;;;8.70;99.90;;;;;;5038423;28;20014;-79
2022/09/24 02:03:57;;;;;;;5.65;2.67;;;8.70;99.90;;;;;;5037076;28;20029;-79
2022/09/24 02:06:30;;;;;;;5.03;2.92;;;8.70;99.90;;;;;;5053171;28;20028;-79
2022/09/24 02:08:57;;;;;;;5.45;3.50;;;8.70;99.90;;;;;;5053785;28;20025;-79
2022/09/24 02:11:24;;;;;;;10.77;4.82;;;8.70;99.90;;;;;;5034643;28;20504;-79
2022/09/24 02:14:00;;;;;;;5.07;3.78;;;8.60;99.90;;;;;;5040456;28;20116;-79
2022/09/24 02:16:48;;;;;;;5.07;3.28;;;8.60;99.90;;;;;;5038300;28;20513;-79
2022/09/24 02:19:19;;;;;;;5.28;3.45;;;8.50;99.90;;;;;;5033241;28;20033;-79
2022/09/24 02:21:45;;;;;;;7.72;3.20;;;8.50;99.90;;;;;;5053402;28;20067;-79
2022/09/24 02:24:33;;;;;;;4.43;2.97;;;8.50;99.90;;;;;;5053389;28;20033;-79
2022/09/24 02:26:59;;;;;;;14.38;7.28;;;8.50;99.90;;;;;;5053488;28;20493;-79
2022/09/24 02:29:25;;;;;;;26.90;12.38;;;8.50;99.90;;;;;;5035643;28;20028;-79
2022/09/24 02:31:54;;;;;;;31.85;13.13;;;8.40;99.90;;;;;;5053087;28;20370;-79
2022/09/24 02:34:30;;;;;;;18.08;7.93;;;8.50;99.90;;;;;;5053146;28;20063;-79
2022/09/24 02:37:05;;;;;;;7.75;4.32;;;8.50;99.90;;;;;;5049352;28;20125;-79
2022/09/24 02:39:31;;;;;;;5.45;3.28;;;8.50;99.90;;;;;;5037561;28;20109;-79
2022/09/24 02:41:58;;;;;;;5.55;3.25;;;8.50;99.90;;;;;;5038301;28;20129;-79
2022/09/24 02:44:24;;;;;;;4.47;2.83;;;8.50;99.90;;;;;;5034865;28;20025;-79
2022/09/24 02:46:50;;;;;;;11.18;4.93;;;8.50;99.90;;;;;;5040318;28;20033;-79
2022/09/24 02:49:16;;;;;;;21.83;10.55;;;8.40;99.90;;;;;;5040221;28;20033;-79
2022/09/24 02:51:42;;;;;;;24.60;11.18;;;8.40;99.90;;;;;;5039675;28;20433;-79
2022/09/24 02:54:09;;;;;;;21.63;10.23;;;8.40;99.90;;;;;;5021122;28;20061;-80
2022/09/24 02:56:35;;;;;;;11.45;6.47;;;8.40;99.90;;;;;;5020959;28;20053;-79
2022/09/24 02:59:01;;;;;;;7.68;3.67;;;8.40;99.90;;;;;;5025648;28;20041;-79
2022/09/24 03:01:31;;;;;;;4.47;3.03;;;8.40;99.90;;;;;;5019067;28;20080;-79
2022/09/24 03:03:57;;;;;;;4.10;2.92;;;8.40;99.90;;;;;;5017166;28;20021;-79
2022/09/24 03:06:25;;;;;;;4.53;2.53;;;8.40;99.90;;;;;;5040584;28;20109;-79
2022/09/24 03:08:54;;;;;;;3.97;2.72;;;8.40;99.90;;;;;;5014861;28;20021;-79
2022/09/24 03:11:21;;;;;;;5.10;2.85;;;8.40;99.90;;;;;;5016217;28;20388;-79
2022/09/24 03:13:48;;;;;;;4.68;2.38;;;8.40;99.90;;;;;;5039452;28;20021;-79
2022/09/24 03:16:15;;;;;;;4.93;2.95;;;8.40;99.90;;;;;;5018477;28;20053;-79
2022/09/24 03:18:40;;;;;;;6.15;4.20;;;8.40;99.90;;;;;;5038244;28;20553;-79
2022/09/24 03:21:09;;;;;;;15.10;6.65;;;8.40;99.90;;;;;;5041490;28;20034;-79
2022/09/24 03:23:35;;;;;;;12.88;7.53;;;8.30;99.90;;;;;;5033140;28;20101;-79
2022/09/24 03:26:01;;;;;;;12.50;7.32;;;8.30;99.90;;;;;;5038491;28;20036;-79
2022/09/24 03:28:27;;;;;;;10.30;6.25;;;8.30;99.90;;;;;;5034146;28;20075;-79
2022/09/24 03:30:59;;;;;;;9.20;6.13;;;8.30;99.90;;;;;;5035200;28;20116;-80
2022/09/24 03:33:31;;;;;;;8.25;5.15;;;8.30;99.90;;;;;;5038236;28;20030;-79
2022/09/24 03:36:00;;;;;;;10.07;5.13;;;8.30;99.90;;;;;;5039856;28;20018;-79
2022/09/24 03:38:26;;;;;;;7.47;4.80;;;8.30;99.90;;;;;;5041082;28;20489;-79
2022/09/24 03:40:52;;;;;;;6.25;4.20;;;8.30;99.90;;;;;;5022652;28;20428;-80
2022/09/24 03:43:18;;;;;;;5.63;3.60;;;8.30;99.90;;;;;;5020508;28;20060;-80
2022/09/24 03:45:44;;;;;;;5.00;3.15;;;8.20;99.90;;;;;;5019794;28;20065;-80
2022/09/24 03:48:10;;;;;;;5.18;3.03;;;8.10;99.90;;;;;;5027034;28;20025;-80
2022/09/24 03:50:36;;;;;;;4.75;2.95;;;8.00;99.90;;;;;;5037471;28;20038;-80
2022/09/24 03:53:02;;;;;;;4.45;3.22;;;8.00;99.90;;;;;;5017681;28;20489;-80
2022/09/24 03:55:28;;;;;;;4.00;2.58;;;8.00;99.90;;;;;;5037089;28;20416;-80
2022/09/24 03:57:53;;;;;;;3.00;2.25;;;8.00;99.90;;;;;;5016118;28;20025;-82
2022/09/24 04:00:19;;;;;;;4.18;2.20;;;8.00;99.90;;;;;;5035266;28;20029;-83
2022/09/24 04:02:45;;;;;;;3.92;2.60;;;8.00;99.90;;;;;;5039776;28;20025;-83
2022/09/24 04:05:11;;;;;;;4.55;2.85;;;8.10;99.90;;;;;;5041614;28;20023;-82
2022/09/24 04:07:36;;;;;;;4.53;2.88;;;8.10;99.90;;;;;;5038749;28;20692;-82
2022/09/24 04:10:03;;;;;;;4.45;2.75;;;8.10;99.90;;;;;;5024410;28;20025;-82
2022/09/24 04:12:29;;;;;;;4.22;2.63;;;8.10;99.90;;;;;;5022188;28;20038;-82
2022/09/24 04:14:55;;;;;;;4.70;2.88;;;8.20;99.90;;;;;;5037088;28;20032;-82
2022/09/24 04:17:21;;;;;;;5.45;3.25;;;8.10;99.90;;;;;;5016505;28;20392;-82
2022/09/24 04:19:46;;;;;;;4.90;2.97;;;8.10;99.90;;;;;;5036339;28;20029;-82
2022/09/24 04:22:12;;;;;;;4.53;2.90;;;8.10;99.90;;;;;;5034287;28;20075;-80
2022/09/24 04:24:39;;;;;;;5.32;2.63;;;8.10;99.90;;;;;;5034078;28;20031;-80
2022/09/24 04:27:04;;;;;;;5.82;2.90;;;8.10;99.90;;;;;;5052045;28;20025;-80
2022/09/24 04:29:30;;;;;;;4.50;2.78;;;8.10;99.90;;;;;;5048212;28;20096;-81
2022/09/24 04:31:56;;;;;;;4.57;2.88;;;8.10;99.90;;;;;;5034819;28;20057;-82
2022/09/24 04:34:21;;;;;;;4.18;2.75;;;8.10;99.90;;;;;;5018225;28;20528;-82
2022/09/24 04:36:47;;;;;;;3.90;2.90;;;8.00;99.90;;;;;;5018434;28;20485;-82
2022/09/24 04:39:14;;;;;;;5.78;3.00;;;8.00;99.90;;;;;;5034603;28;20051;-82
2022/09/24 04:41:39;;;;;;;5.03;3.03;;;7.90;99.90;;;;;;5048119;28;20013;-82
2022/09/24 04:44:05;;;;;;;4.95;3.00;;;7.80;99.90;;;;;;5026171;28;20389;-82
2022/09/24 04:46:33;;;;;;;3.53;2.60;;;7.80;99.90;;;;;;5016711;28;20083;-81
2022/09/24 04:48:59;;;;;;;3.67;2.65;;;7.70;99.90;;;;;;5025844;28;20029;-81
2022/09/24 04:51:25;;;;;;;5.20;3.28;;;7.70;99.90;;;;;;5037880;28;20392;-82
2022/09/24 04:53:50;;;;;;;6.05;3.58;;;7.80;99.90;;;;;;5030960;28;20025;-80
2022/09/24 04:56:16;;;;;;;5.75;3.60;;;7.80;99.90;;;;;;5009269;28;20108;-81
2022/09/24 04:58:42;;;;;;;6.45;3.80;;;7.90;99.90;;;;;;5022867;28;20080;-82
2022/09/24 05:01:08;;;;;;;18.15;10.13;;;7.90;99.90;;;;;;5037139;28;20037;-82
2022/09/24 05:03:34;;;;;;;26.80;13.82;;;7.90;99.90;;;;;;5040493;28;20068;-82
2022/09/24 05:06:00;;;;;;;30.70;15.93;;;7.80;99.90;;;;;;5033975;28;20025;-82
2022/09/24 05:08:26;;;;;;;22.50;12.20;;;7.80;99.90;;;;;;5028578;28;20076;-82
2022/09/24 05:10:53;;;;;;;17.00;9.40;;;7.90;99.90;;;;;;5043784;28;20056;-80
2022/09/24 05:13:19;;;;;;;12.27;6.97;;;7.80;99.90;;;;;;5026675;28;20036;-82
2022/09/24 05:15:44;;;;;;;8.80;6.00;;;7.80;99.90;;;;;;5035747;28;20053;-82
2022/09/24 05:18:10;;;;;;;8.20;5.18;;;7.80;99.90;;;;;;5039679;28;20065;-82
2022/09/24 05:20:36;;;;;;;7.50;4.65;;;7.80;99.90;;;;;;5044836;28;20112;-82
2022/09/24 05:23:02;;;;;;;7.65;4.45;;;7.80;99.90;;;;;;5037537;28;20018;-82
2022/09/24 05:25:28;;;;;;;7.32;4.30;;;7.80;99.90;;;;;;5019185;28;20025;-82
2022/09/24 05:27:54;;;;;;;9.07;4.10;;;7.80;99.90;;;;;;5010748;28;20112;-82
2022/09/24 05:30:23;;;;;;;6.43;4.20;;;7.80;99.90;;;;;;5038998;28;20025;-82
2022/09/24 05:32:51;;;;;;;7.38;4.20;;;7.80;99.90;;;;;;5038867;28;20033;-82
2022/09/24 05:35:21;;;;;;;6.80;4.32;;;7.80;99.90;;;;;;5018223;28;20034;-82
2022/09/24 05:37:48;;;;;;;7.03;4.40;;;7.80;99.90;;;;;;5037283;28;20078;-82
2022/09/24 05:43:00;;;;;;;8.15;4.53;;;7.80;99.90;;;;;;5024701;28;20036;-81
2022/09/24 05:45:26;;;;;;;7.25;4.75;;;7.80;99.90;;;;;;5040193;28;20044;-81
2022/09/24 05:47:52;;;;;;;6.80;5.40;;;7.80;99.90;;;;;;5035393;28;20417;-80
2022/09/24 05:50:17;;;;;;;8.10;5.35;;;7.80;99.90;;;;;;5021996;28;20384;-82
2022/09/24 05:52:43;;;;;;;5.88;4.13;;;7.70;99.90;;;;;;5037618;28;20030;-78
2022/09/24 05:55:09;;;;;;;5.65;3.53;;;7.70;99.90;;;;;;5035921;28;20029;-82
2022/09/24 05:57:35;;;;;;;4.60;3.33;;;7.70;99.90;;;;;;5054615;28;20059;-82
2022/09/24 06:00:02;;;;;;;6.05;3.53;;;7.70;99.90;;;;;;5020748;28;20025;-82
2022/09/24 06:02:27;;;;;;;5.93;3.50;;;7.70;99.90;;;;;;5054000;28;20025;-82
2022/09/24 06:04:53;;;;;;;4.90;3.50;;;7.70;99.90;;;;;;5051761;28;20431;-82
2022/09/24 06:07:20;;;;;;;5.93;3.58;;;7.70;99.90;;;;;;5022313;28;20095;-81
2022/09/24 06:09:46;;;;;;;5.72;3.80;;;7.70;99.90;;;;;;5003419;28;20038;-83
2022/09/24 06:12:13;;;;;;;6.82;3.67;;;7.70;99.90;;;;;;5020075;28;20029;-78
2022/09/24 06:14:40;;;;;;;5.30;4.07;;;7.70;99.90;;;;;;5025592;28;20124;-81
2022/09/24 06:17:05;;;;;;;5.43;3.67;;;7.80;99.90;;;;;;5021467;28;20084;-82
2022/09/24 06:19:31;;;;;;;6.18;3.78;;;7.80;99.90;;;;;;5040297;28;20025;-82
2022/09/24 06:21:57;;;;;;;7.43;3.75;;;7.90;99.90;;;;;;5020549;28;20018;-80
2022/09/24 06:24:22;;;;;;;6.13;3.90;;;7.90;99.90;;;;;;5019773;28;20025;-82
2022/09/24 06:26:48;;;;;;;5.60;3.60;;;8.00;99.90;;;;;;5034665;28;20036;-82
2022/09/24 06:29:14;;;;;;;6.32;3.60;;;8.00;99.90;;;;;;5017407;28;20168;-82
2022/09/24 06:31:39;;;;;;;5.53;3.85;;;8.10;99.90;;;;;;5017441;28;20025;-82
2022/09/24 06:34:05;;;;;;;6.55;4.32;;;8.20;99.90;;;;;;5017713;28;20044;-82
2022/09/24 06:36:31;;;;;;;5.80;3.95;;;8.20;99.90;;;;;;5020435;28;20044;-82
2022/09/24 06:38:57;;;;;;;7.22;4.93;;;8.30;99.90;;;;;;5036361;28;20032;-82
2022/09/24 06:41:23;;;;;;;9.02;4.80;;;8.40;99.90;;;;;;5036308;28;20031;-82
2022/09/24 06:43:52;;;;;;;5.95;3.83;;;8.40;99.90;;;;;;5035886;28;20028;-82
2022/09/24 06:46:17;;;;;;;6.78;4.85;;;8.50;99.90;;;;;;5036359;28;20032;-82
2022/09/24 06:48:43;;;;;;;10.90;5.20;;;8.50;99.90;;;;;;5030144;28;20079;-82
2022/09/24 06:51:09;;;;;;;8.82;4.57;;;8.60;99.90;;;;;;5020154;28;20033;-82
2022/09/24 06:53:35;;;;;;;6.20;4.15;;;8.70;99.90;;;;;;5019426;28;20075;-82
2022/09/24 06:56:02;;;;;;;7.30;4.15;;;8.70;99.90;;;;;;5039563;28;20100;-81
2022/09/24 06:58:28;;;;;;;5.80;3.83;;;8.80;99.90;;;;;;5038014;28;20022;-81
2022/09/24 07:00:58;;;;;;;5.18;3.95;;;8.90;99.90;;;;;;5036448;28;20030;-81
2022/09/24 07:03:29;;;;;;;7.55;3.67;;;8.90;99.90;;;;;;5033863;28;20381;-82
2022/09/24 07:05:58;;;;;;;7.90;3.97;;;9.00;99.90;;;;;;5047907;28;20018;-82
2022/09/24 07:08:24;;;;;;;6.28;3.88;;;9.10;99.90;;;;;;5052551;28;20029;-82
2022/09/24 07:10:51;;;;;;;7.82;4.28;;;9.10;99.90;;;;;;5034936;28;20036;-82
2022/09/24 07:13:17;;;;;;;7.85;3.97;;;9.20;99.90;;;;;;5021960;28;20481;-82
2022/09/24 07:15:44;;;;;;;5.68;3.97;;;9.20;99.90;;;;;;5038039;28;20025;-82
2022/09/24 07:18:10;;;;;;;5.30;3.63;;;9.30;99.90;;;;;;5021386;28;20496;-83
2022/09/24 07:20:36;;;;;;;5.68;4.30;;;9.30;99.90;;;;;;5048247;28;20064;-83
2022/09/24 07:23:07;;;;;;;6.03;3.75;;;9.40;99.90;;;;;;5052634;28;20103;-82
2022/09/24 07:25:33;;;;;;;5.78;3.90;;;9.50;99.90;;;;;;5025847;28;20017;-81
2022/09/24 07:28:04;;;;;;;5.13;3.70;;;9.50;99.90;;;;;;5042164;28;20116;-81
2022/09/24 07:30:32;;;;;;;5.20;3.65;;;9.60;99.90;;;;;;5040821;28;20044;-81
2022/09/24 07:32:58;;;;;;;7.25;4.45;;;9.70;99.90;;;;;;5033118;28;20030;-81
2022/09/24 07:35:24;;;;;;;7.20;3.70;;;9.70;99.90;;;;;;5040063;28;20100;-81
2022/09/24 07:38:01;;;;;;;5.95;3.70;;;9.80;99.90;;;;;;5038434;28;20039;-81
2022/09/24 07:40:28;;;;;;;6.60;4.10;;;9.80;99.90;;;;;;5020720;28;20429;-80
2022/09/24 07:42:54;;;;;;;7.22;3.67;;;9.90;99.90;;;;;;5037584;28;20057;-82
2022/09/24 07:45:28;;;;;;;5.18;3.45;;;10.00;99.90;;;;;;5018014;28;20071;-82
2022/09/24 07:48:02;;;;;;;5.00;3.00;;;10.00;99.90;;;;;;5038298;28;20032;-82
2022/09/24 07:50:29;;;;;;;6.57;3.10;;;10.10;99.90;;;;;;5039837;28;20025;-81
2022/09/24 07:52:56;;;;;;;5.35;3.55;;;10.10;99.90;;;;;;5017329;28;20116;-80
2022/09/24 07:55:22;;;;;;;5.25;3.55;;;10.20;99.90;;;;;;5033238;28;20076;-82
2022/09/24 07:57:51;;;;;;;4.50;3.58;;;10.30;99.90;;;;;;5014519;28;20098;-82
2022/09/24 08:00:18;;;;;;;5.55;3.30;;;10.40;99.90;;;;;;5017983;28;20021;-82
2022/09/24 08:02:44;;;;;;;4.65;3.30;;;10.50;99.90;;;;;;5037337;28;20117;-82
2022/09/24 08:05:11;;;;;;;9.23;3.78;;;10.60;99.90;;;;;;5017476;28;20021;-82
2022/09/24 08:07:37;;;;;;;6.45;3.72;;;10.70;99.90;;;;;;5034216;28;20120;-82
2022/09/24 08:10:04;;;;;;;5.75;3.78;;;10.80;99.90;;;;;;5034413;28;20060;-82
2022/09/24 08:12:29;;;;;;;5.97;3.60;;;10.80;99.90;;;;;;5034271;28;20040;-82
2022/09/24 08:14:55;;;;;;;9.05;3.78;;;10.90;99.90;;;;;;5052125;28;20029;-82
2022/09/24 08:17:21;;;;;;;6.13;3.83;;;11.00;99.90;;;;;;5053940;28;20025;-81
2022/09/24 08:19:46;;;;;;;5.68;3.35;;;11.00;99.90;;;;;;5052436;28;20064;-81
2022/09/24 08:22:15;;;;;;;5.15;3.53;;;11.10;99.90;;;;;;5019148;28;20033;-82
2022/09/24 08:24:41;;;;;;;6.50;3.20;;;11.20;99.90;;;;;;5018853;28;20113;-81
2022/09/24 08:27:07;;;;;;;3.92;2.83;;;11.30;99.90;;;;;;5040881;28;20515;-82
2022/09/24 08:29:33;;;;;;;5.40;3.72;;;11.30;99.90;;;;;;5036641;28;20152;-82
2022/09/24 08:31:59;;;;;;;6.78;4.30;;;11.40;99.90;;;;;;5023036;28;20083;-83
2022/09/24 08:34:25;;;;;;;5.20;3.80;;;11.50;99.90;;;;;;5028570;28;20039;-83
2022/09/24 08:36:51;;;;;;;6.15;3.97;;;11.60;99.90;;;;;;5040042;28;20041;-83
2022/09/24 08:39:17;;;;;;;5.95;4.47;;;11.60;99.90;;;;;;5018608;28;20036;-83
2022/09/24 08:41:53;;;;;;;6.75;4.18;;;11.70;99.90;;;;;;5018609;28;20469;-82
2022/09/24 08:47:59;;;;;;;7.75;4.32;;;11.90;99.90;;;;;;5034727;28;20040;-82
2022/09/24 08:50:31;;;;;;;6.72;5.20;;;12.00;99.90;;;;;;5041762;28;20112;-82
2022/09/24 08:53:20;;;;;;;5.40;4.13;;;12.10;99.90;;;;;;5040993;28;20078;-81
2022/09/24 08:55:48;;;;;;;6.63;3.95;;;12.10;99.90;;;;;;5025350;28;20072;-82
2022/09/24 08:58:51;;;;;;;11.07;3.97;;;12.30;99.90;;;;;;5015492;28;20124;-82
2022/09/24 09:02:04;;;;;;;5.75;3.72;;;12.30;99.90;;;;;;5049961;28;20420;-82
2022/09/24 09:05:11;;;;;;;5.43;3.42;;;12.40;99.90;;;;;;5004684;28;20036;-83
2022/09/24 09:07:51;;;;;;;5.07;3.70;;;12.50;99.90;;;;;;5028290;28;20047;-82
2022/09/24 09:10:27;;;;;;;5.28;3.38;;;12.60;99.90;;;;;;5043727;28;20511;-84
2022/09/24 09:13:07;;;;;;;5.20;3.42;;;12.70;99.90;;;;;;5028657;28;20120;-82
2022/09/24 09:15:38;;;;;;;4.65;2.85;;;12.70;99.90;;;;;;5037154;28;20365;-83
2022/09/24 09:18:11;;;;;;;4.03;2.67;;;12.80;99.90;;;;;;5055475;28;20025;-84
2022/09/24 09:20:46;;;;;;;3.80;2.58;;;12.90;99.90;;;;;;5038639;28;20403;-83
2022/09/24 09:23:31;;;;;;;7.22;4.10;;;12.90;99.90;;;;;;5046345;28;20017;-83
2022/09/24 09:25:58;;;;;;;9.50;4.47;;;13.00;99.90;;;;;;5022579;28;20159;-83
2022/09/24 09:28:28;;;;;;;8.57;4.82;;;13.10;99.90;;;;;;5021184;28;20036;-83
2022/09/24 09:31:07;;;;;;;6.93;5.00;;;13.10;99.90;;;;;;5020980;28;20030;-83
2022/09/24 09:33:53;;;;;;;6.05;4.90;;;13.20;99.90;;;;;;5039898;28;20377;-83
2022/09/24 09:36:31;;;;;;;7.88;5.45;;;13.20;99.90;;;;;;5039885;28;20338;-83
2022/09/24 09:39:30;;;;;;;6.85;4.97;;;13.30;99.90;;;;;;5040154;28;20396;-84
2022/09/24 09:42:35;;;;;;;9.60;5.30;;;13.40;99.90;;;;;;5057955;28;20029;-84
2022/09/24 09:45:31;;;;;;;8.27;5.25;;;13.60;99.90;;;;;;5048996;28;20032;-83
2022/09/24 09:47:58;;;;;;;7.30;4.10;;;13.60;99.90;;;;;;5042263;28;20044;-83
2022/09/24 09:50:23;;;;;;;6.75;4.25;;;13.70;99.90;;;;;;5045164;28;20025;-83
2022/09/24 09:52:49;;;;;;;5.65;4.13;;;13.80;99.90;;;;;;5022639;28;20394;-82
2022/09/24 09:55:31;;;;;;;5.60;4.43;;;13.90;99.90;;;;;;5040761;28;20081;-83
2022/09/24 09:58:18;;;;;;;6.72;4.30;;;14.00;99.90;;;;;;5066627;23;20496;-74
2022/09/24 10:00:48;;;;;;;6.78;4.15;;;14.00;99.90;;;;;;5094787;28;20403;-73
2022/09/24 10:03:30;;;;;;;5.32;4.30;;;14.10;99.90;;;;;;5076301;28;20113;-73
2022/09/24 10:05:59;;;;;;;7.47;5.05;;;14.20;99.90;;;;;;5074311;28;20024;-73
2022/09/24 10:08:26;;;;;;;8.95;5.97;;;14.30;99.90;;;;;;5074255;28;20043;-69
2022/09/24 10:11:00;;;;;;;6.65;5.05;;;14.40;99.90;;;;;;5056399;28;20039;-70
2022/09/24 10:13:26;;;;;;;6.93;5.05;;;14.40;99.90;;;;;;5075274;28;20036;-69
2022/09/24 10:15:55;;;;;;;8.20;4.60;;;14.50;99.90;;;;;;5074424;28;20025;-69
2022/09/24 10:18:34;;;;;;;5.70;3.88;;;14.60;99.90;;;;;;5073716;28;20024;-69
2022/09/24 10:21:08;;;;;;;5.57;3.70;;;14.60;99.90;;;;;;5056079;28;20021;-68
2022/09/24 10:23:37;;;;;;;5.47;3.30;;;14.80;99.90;;;;;;5074253;28;20028;-69
2022/09/24 10:26:05;;;;;;;5.53;3.17;;;14.80;99.90;;;;;;5056173;28;20024;-69
2022/09/24 10:31:22;;;;;;;6.80;3.22;;;15.00;99.90;;;;;;5074245;28;20051;-71
2022/09/24 10:33:52;;;;;;;6.70;3.20;;;15.10;99.90;;;;;;5055940;28;20040;-69
2022/09/24 10:36:22;;;;;;;4.25;2.95;;;15.10;99.90;;;;;;5073900;28;20491;-68
2022/09/24 10:38:49;;;;;;;4.18;3.00;;;15.30;99.90;;;;;;5074086;28;20490;-69
2022/09/24 10:41:16;;;;;;;4.82;2.97;;;15.40;99.90;;;;;;5072900;28;20422;-69
2022/09/24 10:43:50;;;;;;;4.68;3.00;;;15.40;99.90;;;;;;5073627;28;20067;-69
2022/09/24 10:46:48;;;;;;;6.22;3.17;;;15.60;99.90;;;;;;5073453;28;20019;-69
2022/09/24 10:49:23;;;;;;;5.22;2.90;;;15.70;99.90;;;;;;5070530;28;20123;-69
2022/09/24 10:52:13;;;;;;;7.53;3.53;;;15.80;99.90;;;;;;5073775;28;20012;-69
2022/09/24 10:54:55;;;;;;;5.20;2.75;;;15.90;99.90;;;;;;5073400;28;20028;-68
2022/09/24 10:57:33;;;;;;;4.90;2.95;;;15.90;99.90;;;;;;5073486;28;20024;-69
2022/09/24 11:00:22;;;;;;;5.47;2.65;;;16.00;99.90;;;;;;5073691;28;20070;-69
2022/09/24 11:03:02;;;;;;;4.20;2.90;;;16.00;99.90;;;;;;5073387;28;20541;-69
2022/09/24 11:06:01;;;;;;;4.38;3.10;;;16.00;99.90;;;;;;5073304;28;20097;-69
2022/09/24 11:08:45;;;;;;;7.40;4.22;;;16.20;99.90;;;;;;5019270;28;20053;-69
2022/09/24 11:11:33;;;;;;;5.55;3.05;;;16.30;99.90;;;;;;5073573;28;20056;-69
2022/09/24 11:14:11;;;;;;;4.72;2.95;;;16.50;99.90;;;;;;5073335;28;20120;-69
2022/09/24 11:17:02;;;;;;;5.03;2.70;;;16.50;99.90;;;;;;5073007;28;20099;-69
2022/09/24 11:20:02;;;;;;;11.13;4.40;;;16.50;99.90;;;;;;5073196;28;20025;-70
2022/09/24 11:22:50;;;;;;;4.97;2.78;;;16.50;99.90;;;;;;5073490;28;20095;-70
2022/09/24 11:25:18;;;;;;;7.90;2.85;;;16.60;99.90;;;;;;5073143;28;20025;-70
2022/09/24 11:28:04;;;;;;;4.80;2.88;;;16.60;99.90;;;;;;5073082;28;20025;-69
2022/09/24 11:30:53;;;;;;;7.78;2.88;;;16.60;99.90;;;;;;5073135;28;20024;-69
2022/09/24 11:33:40;;;;;;;5.78;3.85;;;16.70;99.90;;;;;;5072813;28;20032;-69
2022/09/24 11:36:43;;;;;;;5.40;3.10;;;16.70;99.90;;;;;;5073051;28;20158;-69
2022/09/24 11:39:37;;;;;;;4.95;2.90;;;16.80;99.90;;;;;;5069850;28;20094;-69
2022/09/24 11:42:18;;;;;;;5.38;4.30;;;16.80;99.90;;;;;;5073021;28;20055;-69
2022/09/24 11:45:05;;;;;;;4.55;3.50;;;16.80;99.90;;;;;;5073169;28;20020;-69
2022/09/24 11:47:50;;;;;;;6.85;2.85;;;16.80;99.90;;;;;;5072860;28;20027;-69
2022/09/24 11:50:25;;;;;;;4.68;2.63;;;16.80;99.90;;;;;;5072894;28;20115;-69
2022/09/24 11:53:21;;;;;;;4.95;3.30;;;16.80;99.90;;;;;;5075997;28;20013;-69
2022/09/24 11:56:00;;;;;;;4.95;2.80;;;16.80;99.90;;;;;;5058879;28;20025;-69
2022/09/24 11:58:31;;;;;;;7.05;3.45;;;16.80;99.90;;;;;;5076722;28;20073;-69
2022/09/24 12:01:22;;;;;;;4.90;3.13;;;16.80;99.90;;;;;;5077255;28;20099;-69
2022/09/24 12:04:09;;;;;;;4.25;2.97;;;16.90;99.90;;;;;;5076252;28;20036;-69
2022/09/24 12:06:53;;;;;;;7.25;3.20;;;16.90;99.90;;;;;;5076717;28;20024;-69
2022/09/24 12:09:40;;;;;;;4.30;2.70;;;16.90;99.90;;;;;;5076824;28;20028;-69
2022/09/24 12:12:27;;;;;;;3.55;2.35;;;16.90;99.90;;;;;;5076589;28;20032;-69
2022/09/24 12:15:03;;;;;;;4.43;2.80;;;17.00;99.90;;;;;;5076645;28;20358;-69
2022/09/24 12:17:50;;;;;;;5.18;2.60;;;17.00;99.90;;;;;;5076197;28;20025;-69
2022/09/24 12:20:21;;;;;;;5.30;2.75;;;17.00;99.90;;;;;;5068711;28;20096;-69
2022/09/24 12:22:54;;;;;;;;;;;17.00;99.90;;;;;;5056784;28;20021;-69
2022/09/24 12:25:20;;;;;;;3.90;2.30;;;16.90;99.90;;;;;;5056382;28;20350;-69
2022/09/24 12:27:47;;;;;;;3.75;2.25;;;17.00;99.90;;;;;;5056575;28;20054;-69
2022/09/24 12:33:20;;;;;;;4.07;2.40;;;17.00;99.90;;;;;;5055953;28;20083;-69
2022/09/24 12:35:59;;;;;;;3.33;2.53;;;17.10;99.90;;;;;;5056180;28;20025;-69
2022/09/24 12:38:27;;;;;;;5.50;3.05;;;17.00;99.90;;;;;;5056017;28;20028;-69
2022/09/24 12:41:31;;;;;;;5.75;3.30;;;17.10;99.90;;;;;;5056042;28;20016;-69
2022/09/24 12:44:02;;;;;;;6.68;2.80;;;17.00;99.90;;;;;;5056444;28;20013;-69
2022/09/24 12:46:44;;;;;;;3.35;2.28;;;17.00;99.90;;;;;;5055927;28;20385;-69
2022/09/24 12:49:25;;;;;;;4.45;2.03;;;17.00;99.90;;;;;;5055850;28;20037;-69
2022/09/24 12:51:58;;;;;;;4.18;2.30;;;17.00;98.80;;;;;;5055868;28;20035;-70
2022/09/24 12:54:29;;;;;;;2.90;2.03;;;17.00;99.00;;;;;;5056069;28;20041;-70
2022/09/24 12:57:09;;;;;;;6.18;2.60;;;17.00;99.70;;;;;;5055640;28;20033;-70
2022/09/24 12:59:49;;;;;;;4.13;2.20;;;17.10;99.70;;;;;;5055685;28;20033;-70
2022/09/24 13:02:44;;;;;;;3.85;2.20;;;17.00;99.90;;;;;;5055642;28;20076;-70
2022/09/24 13:05:27;;;;;;;3.22;2.17;;;17.10;99.90;;;;;;5055355;28;20028;-70
2022/09/24 13:08:10;;;;;;;4.05;2.63;;;17.10;99.90;;;;;;5055866;28;20538;-70
2022/09/24 13:10:36;;;;;;;5.93;2.65;;;17.20;99.90;;;;;;5059687;28;20074;-70
2022/09/24 13:13:24;;;;;;;4.82;2.33;;;17.20;98.90;;;;;;5075277;28;20036;-70
2022/09/24 13:16:03;;;;;;;5.03;3.83;;;17.20;99.20;;;;;;5076018;28;20433;-70
2022/09/24 13:18:32;;;;;;;8.02;5.40;;;17.20;98.80;;;;;;5074765;28;20019;-70
2022/09/24 13:21:05;;;;;;;6.55;4.80;;;17.20;98.90;;;;;;5063970;28;20104;-70
2022/09/24 13:23:34;;;;;;;5.50;2.40;;;17.20;98.70;;;;;;5072128;28;20526;-70
2022/09/24 13:26:04;;;;;;;3.90;2.45;;;17.20;98.80;;;;;;5068000;28;20028;-70
2022/09/24 13:28:31;;;;;;;3.55;2.40;;;17.20;98.20;;;;;;5055162;28;20029;-68
2022/09/24 13:31:28;;;;;;;4.88;2.17;;;17.10;99.00;;;;;;5055117;28;20421;-69
2022/09/24 13:34:23;;;;;;;4.32;2.42;;;17.10;99.80;;;;;;5054824;28;20370;-70